• Join FlightAware (Why Join?)
  • Login
  • US Flag 
06:49AM EDT


 

Airport Tracker/Info


-or-


 

Live Flight TrackerFlight Track Log ✈ SWA796 ✈ 04-May-2013 ✈ KCMH - KPHX

Flight Track Log - Related Links

Times and Time Zones

All times are in EDT time to prevent confusion due to time zone crossing. See the SWA796 flight status page for this flight to view local times or setup timezone preferences in your user account.

Time Position Orientation Groundspeed Altitude Reporting Facility
EDT Latitude Longitude Course Direction KTS MPH feet Rate Location/Type
01:02PM 39.9925 -82.8083 91° East 171 197 3,200  Level Indianapolis Center
01:03PM 39.9989 -82.7814 73° East 191 220 4,100 2,160 Climbing Indianapolis Center
01:03PM 40.0447 -82.7817 360° North 256 295 5,400 1,860 Climbing Indianapolis Center
01:04PM 40.0575 -82.8047 306° West 252 290 6,000 2,220 Climbing Indianapolis Center
01:05PM 40.0597 -82.9067 272° West 287 330 8,600 2,040 Climbing Indianapolis Center
01:06PM 40.0586 -83.0231 269° West 314 361 10,300 2,580 Climbing Indianapolis Center
01:07PM 40.0544 -83.1758 268° West 360 414 14,000 3,000 Climbing Indianapolis Center
01:08PM 40.0425 -83.3108 263° West 375 432 16,500 2,460 Climbing Indianapolis Center
01:09PM 40.0208 -83.4519 259° West 396 456 19,100 2,400 Climbing Indianapolis Center
01:10PM 40.0008 -83.5969 260° West 409 471 21,500 2,400 Climbing Indianapolis Center
01:11PM 39.9806 -83.7478 260° West 423 487 24,100 2,340 Climbing Indianapolis Center
01:12PM 39.9597 -83.8983 260° West 422 486 26,400 1,800 Climbing Indianapolis Center
01:13PM 39.9383 -84.0525 260° West 428 493 27,800 1,380 Climbing Indianapolis Center
01:14PM 39.9128 -84.2419 260° West 447 514 29,300 1,440 Climbing Indianapolis Center
01:15PM 39.8889 -84.4092 260° West 464 534 30,800 1,500 Climbing Indianapolis Center
01:16PM 39.8656 -84.5761 260° West 467 537 32,400 1,440 Climbing Indianapolis Center
01:17PM 39.8417 -84.7408 259° West 462 532 33,800 780 Climbing Indianapolis Center
01:18PM 39.8167 -84.9086 259° West 462 532 34,000 660 Climbing Indianapolis Center
01:19PM 39.7928 -85.0725 259° West 463 533 35,200 960 Climbing Indianapolis Center
01:20PM 39.7692 -85.2322 259° West 455 524 36,000 360 Climbing Indianapolis Center
01:21PM 39.7442 -85.3950 259° West 458 527 36,000 300 Level Indianapolis Center
01:22PM 39.7203 -85.5575 259° West 460 529 36,700 900 Climbing Indianapolis Center
01:23PM 39.6958 -85.7197 259° West 461 531 37,900 600 Climbing Indianapolis Center
01:24PM 39.6658 -85.9125 259° West 457 526 38,000  Climbing Indianapolis Center
01:25PM 39.6411 -86.0753 259° West 457 526 38,000  Level Indianapolis Center
01:26PM 39.6144 -86.2386 258° West 455 524 38,000  Level Indianapolis Center
01:27PM 39.5900 -86.4028 259° West 455 524 38,000  Level Indianapolis Center
01:28PM 39.5631 -86.5653 258° West 457 526 38,000  Level Indianapolis Center
01:29PM 39.5364 -86.7258 258° West 456 525 38,000  Level Indianapolis Center
01:30PM 39.5119 -86.8858 259° West 455 524 38,000  Level Indianapolis Center
01:31PM 39.4861 -87.0450 258° West 454 522 38,000  Level Indianapolis Center
01:32PM 39.4592 -87.2033 258° West 453 521 38,000  Level Indianapolis Center
01:33PM 39.4319 -87.3622 258° West 454 522 38,000  Level Indianapolis Center
01:34PM 39.4042 -87.5219 257° West 457 526 38,000  Level Indianapolis Center
01:35PM 39.3742 -87.7036 258° West 455 524 38,000  Level Indianapolis Center
01:36PM 39.3453 -87.8633 257° West 457 526 38,000  Level Indianapolis Center
01:37PM 39.3286 -87.9597 257° West 456 525 38,000  Level Kansas City Center
01:38PM 39.3011 -88.1186 257° West 455 524 38,000  Level Kansas City Center
01:39PM 39.2736 -88.2778 257° West 455 524 38,000  Level Kansas City Center
01:40PM 39.2453 -88.4381 257° West 456 525 38,000  Level Kansas City Center
01:41PM 39.2161 -88.5986 257° West 457 526 38,000  Level Kansas City Center
01:42PM 39.1800 -88.7917 256° West 463 533 38,000  Level Kansas City Center
01:43PM 39.1503 -88.9536 257° West 465 535 38,000  Level Kansas City Center
01:44PM 39.1200 -89.1186 257° West 465 535 38,000  Level Kansas City Center
01:45PM 39.0886 -89.2939 257° West 468 539 38,000  Level Kansas City Center
01:46PM 39.0583 -89.4561 257° West 468 539 38,000  Level Kansas City Center
01:47PM 39.0253 -89.6314 256° West 469 540 38,000  Level Kansas City Center
01:48PM 38.9939 -89.7950 256° West 473 544 38,000  Level Kansas City Center
01:49PM 38.9597 -89.9731 256° West 478 550 38,000  Level Kansas City Center
01:50PM 38.9303 -90.1300 256° West 481 554 38,000  Level Kansas City Center
01:51PM 38.8989 -90.3031 257° West 480 552 38,000  Level Kansas City Center
01:52PM 38.8656 -90.4717 256° West 484 557 38,000  Level Kansas City Center
01:53PM 38.8414 -90.6381 259° West 475 547 38,000  Level Kansas City Center
01:54PM 38.8178 -90.8189 261° West 474 545 38,000  Level Kansas City Center
01:56PM 38.7964 -90.9856 261° West 476 548 38,000  Level Kansas City Center
01:57PM 38.7747 -91.1519 261° West 477 549 38,000  Level Kansas City Center
01:58PM 38.7525 -91.3178 260° West 474 545 38,000  Level Kansas City Center
01:59PM 38.7300 -91.4822 260° West 472 543 38,000  Level Kansas City Center
02:00PM 38.7031 -91.6719 260° West 473 544 38,000  Level Kansas City Center
02:01PM 38.6806 -91.8389 260° West 475 547 38,000  Level Kansas City Center
02:02PM 38.6556 -92.0036 259° West 473 544 38,000  Level Kansas City Center
02:03PM 38.6319 -92.1703 260° West 476 548 38,000  Level Kansas City Center
02:04PM 38.6022 -92.3689 259° West 476 548 38,000  Level Kansas City Center
02:05PM 38.5775 -92.5325 259° West 474 545 38,000  Level Kansas City Center
02:06PM 38.5533 -92.6978 259° West 473 544 38,000  Level Kansas City Center
02:07PM 38.5278 -92.8644 259° West 476 548 38,000  Level Kansas City Center
02:08PM 38.5031 -93.0303 259° West 477 549 38,000  Level Kansas City Center
02:09PM 38.4772 -93.1961 259° West 477 549 38,000  Level Kansas City Center
02:10PM 38.4528 -93.3606 259° West 475 547 38,000  Level Kansas City Center
02:11PM 38.4217 -93.5567 259° West 471 542 38,000  Level Kansas City Center
02:12PM 38.3958 -93.7189 259° West 469 540 38,000  Level Kansas City Center
02:13PM 38.3717 -93.8814 259° West 467 537 38,000  Level Kansas City Center
02:14PM 38.3458 -94.0447 259° West 469 540 38,000  Level Kansas City Center
02:15PM 38.3181 -94.2131 258° West 468 539 38,000  Level Kansas City Center
02:16PM 38.2922 -94.3686 258° West 467 537 38,000  Level Kansas City Center
02:17PM 38.2622 -94.5494 258° West 467 537 38,000  Level Kansas City Center
02:18PM 38.2392 -94.7036 259° West 466 536 38,000  Level Kansas City Center
02:19PM 38.2147 -94.8597 259° West 466 536 38,000  Level Kansas City Center
02:20PM 38.1853 -95.0372 258° West 463 533 38,000  Level Kansas City Center
02:21PM 38.1606 -95.1925 259° West 466 536 38,000  Level Kansas City Center
02:22PM 38.1303 -95.3711 258° West 464 534 38,000  Level Kansas City Center
02:23PM 38.1039 -95.5231 258° West 462 532 38,000  Level Kansas City Center
02:24PM 38.0775 -95.6756 258° West 462 532 38,000  Level Kansas City Center
02:25PM 38.0464 -95.8525 257° West 459 528 38,000  Level Kansas City Center
02:26PM 38.0206 -96.0053 258° West 462 532 38,000  Level Kansas City Center
02:27PM 37.9903 -96.1853 258° West 467 537 38,000  Level Kansas City Center
02:28PM 37.9642 -96.3458 258° West 466 536 38,000  Level Kansas City Center
02:29PM 37.9372 -96.5039 258° West 461 531 38,000  Level Kansas City Center
02:30PM 37.9114 -96.6622 258° West 459 528 38,000  Level Kansas City Center
02:32PM 37.8856 -96.8192 258° West 456 525 38,000  Level Kansas City Center
02:33PM 37.8575 -96.9736 257° West 452 520 38,000  Level Kansas City Center
02:34PM 37.8300 -97.1256 257° West 444 511 38,000  Level Kansas City Center
02:35PM 37.8022 -97.2761 257° West 439 505 38,000  Level Kansas City Center
02:36PM 37.7697 -97.4531 257° West 431 496 38,000  Level Kansas City Center
02:37PM 37.7417 -97.6003 256° West 427 491 38,000  Level Kansas City Center
02:38PM 37.7136 -97.7467 256° West 423 487 38,000  Level Kansas City Center
02:39PM 37.6856 -97.8933 256° West 424 488 38,000  Level Kansas City Center
02:40PM 37.6581 -98.0386 257° West 423 487 38,000  Level Kansas City Center
02:41PM 37.6306 -98.1822 256° West 421 484 38,000  Level Kansas City Center
02:42PM 37.6014 -98.3253 256° West 419 482 38,000  Level Kansas City Center
02:43PM 37.5719 -98.4681 255° West 420 483 38,000  Level Kansas City Center
02:44PM 37.5447 -98.6106 256° West 417 480 38,000  Level Kansas City Center
02:45PM 37.5161 -98.7531 256° West 419 482 38,000  Level Kansas City Center
02:46PM 37.4867 -98.8919 255° West 414 476 38,000  Level Kansas City Center
02:47PM 37.4578 -99.0317 255° West 412 474 38,000  Level Kansas City Center
02:48PM 37.4236 -99.2006 256° West 414 476 38,000  Level Kansas City Center
02:49PM 37.3956 -99.3411 256° West 415 478 38,000  Level Kansas City Center
02:50PM 37.3669 -99.4778 255° West 416 479 38,000  Level Kansas City Center
02:51PM 37.3342 -99.6311 255° West 408 470 38,000  Level Kansas City Center
02:52PM 37.3078 -99.7594 256° West 400 460 38,000  Level Kansas City Center
02:53PM 37.2811 -99.8864 255° West 394 453 38,000  Level Kansas City Center
02:54PM 37.2489 -100.0344 255° West 392 451 38,000  Level Kansas City Center
02:55PM 37.2231 -100.1606 256° West 391 450 38,000  Level Kansas City Center
02:56PM 37.1903 -100.3078 254° West 391 450 38,000  Level Kansas City Center
02:57PM 37.1625 -100.4339 255° West 391 450 38,000  Level Kansas City Center
02:58PM 37.1353 -100.5594 255° West 389 448 38,000  Level Kansas City Center
02:59PM 37.1042 -100.7044 255° West 387 445 38,000  Level Kansas City Center
03:00PM 37.0767 -100.8286 255° West 386 444 38,000  Level Kansas City Center
03:01PM 37.0439 -100.9711 254° West 382 440 38,000  Level Kansas City Center
03:02PM 37.0072 -101.0911 249° West 384 442 38,000  Level Kansas City Center
03:03PM 36.9700 -101.2100 249° West 384 442 38,000  Level Kansas City Center
03:04PM 36.9264 -101.3494 249° West 385 443 38,000  Level Kansas City Center
03:05PM 36.8886 -101.4708 249° West 388 447 38,000  Level Albuquerque Center
03:06PM 36.8503 -101.5925 249° West 391 450 38,000  Level Albuquerque Center
03:07PM 36.8047 -101.7325 248° West 390 449 38,000  Level Albuquerque Center
03:08PM 36.7658 -101.8550 248° West 393 452 38,000 420 Level Albuquerque Center
03:09PM 36.7206 -101.9961 248° West 394 453 38,900 780 Climbing Albuquerque Center
03:10PM 36.6814 -102.1189 248° West 395 455 39,700 480 Climbing Albuquerque Center
03:11PM 36.6367 -102.2586 248° West 398 458 40,000 120 Climbing Albuquerque Center
03:12PM 36.5958 -102.3847 248° West 396 456 40,000  Level Albuquerque Center
03:14PM 36.5667 -102.5178 255° West 398 458 40,000  Level Albuquerque Center
03:15PM 36.5392 -102.6497 255° West 397 457 40,000  Level Albuquerque Center
03:16PM 36.5114 -102.7794 255° West 393 452 40,000  Level Albuquerque Center
03:17PM 36.4817 -102.9211 255° West 388 447 40,000  Level Albuquerque Center
03:18PM 36.4550 -103.0525 256° West 389 448 40,000  Level Albuquerque Center
03:19PM 36.4275 -103.1833 255° West 388 447 40,000  Level Albuquerque Center
03:20PM 36.3989 -103.3156 255° West 391 450 40,000  Level Albuquerque Center
03:21PM 36.3711 -103.4467 255° West 392 451 40,000  Level Albuquerque Center
03:22PM 36.3417 -103.5764 254° West 390 449 40,000  Level Albuquerque Center
03:23PM 36.3125 -103.7078 255° West 392 451 40,000  Level Albuquerque Center
03:24PM 36.2786 -103.8594 255° West 390 449 40,000  Level Albuquerque Center
03:25PM 36.2497 -103.9908 255° West 392 451 40,000  Level Albuquerque Center
03:26PM 36.2197 -104.1233 254° West 395 455 40,000  Level Albuquerque Center
03:27PM 36.1897 -104.2528 254° West 393 452 40,000  Level Albuquerque Center
03:28PM 36.1586 -104.3856 254° West 397 457 40,000  Level Albuquerque Center
03:29PM 36.1289 -104.5181 255° West 398 458 40,000  Level Albuquerque Center
03:30PM 36.0992 -104.6503 254° West 397 457 40,000  Level Albuquerque Center
03:31PM 36.0686 -104.7844 254° West 402 463 40,000  Level Albuquerque Center
03:32PM 36.0297 -104.9439 253° West 412 474 40,000  Level Albuquerque Center
03:33PM 35.9997 -105.0783 255° West 408 470 40,000  Level Albuquerque Center
03:34PM 35.9683 -105.2114 254° West 403 464 40,000  Level Albuquerque Center
03:35PM 35.9372 -105.3458 254° West 404 465 40,000  Level Albuquerque Center
03:36PM 35.9053 -105.4811 254° West 407 468 40,000  Level Albuquerque Center
03:37PM 35.8728 -105.6094 253° West 407 468 40,000  Level Albuquerque Center
03:38PM 35.8419 -105.7431 254° West 407 468 40,000  Level Albuquerque Center
03:39PM 35.8089 -105.8756 253° West 406 467 40,000  Level Albuquerque Center
03:40PM 35.7772 -106.0078 254° West 404 465 40,000  Level Albuquerque Center
03:41PM 35.7403 -106.1656 254° West 401 461 40,000  Level Albuquerque Center
03:42PM 35.7086 -106.2992 254° West 402 463 40,000  Level Albuquerque Center
03:43PM 35.6761 -106.4228 252° West 399 459 40,000  Level Albuquerque Center
03:44PM 35.6422 -106.5675 254° West 396 456 40,000  Level Albuquerque Center
03:45PM 35.6131 -106.6828 253° West 395 455 40,000  Level Albuquerque Center
03:46PM 35.5817 -106.8108 253° West 394 453 40,000  Level Albuquerque Center
03:47PM 35.5492 -106.9378 253° West 391 450 40,000  Level Albuquerque Center
03:48PM 35.5106 -107.0906 253° West 394 453 40,000  Level Albuquerque Center
03:49PM 35.4775 -107.2225 253° West 392 451 40,000  Level Albuquerque Center
03:50PM 35.4461 -107.3439 252° West 390 449 40,000  Level Albuquerque Center
03:52PM 35.4083 -107.4869 252° West 393 452 40,000  Level Albuquerque Center
03:53PM 35.3772 -107.6108 253° West 395 455 40,000  Level Albuquerque Center
03:54PM 35.3447 -107.7342 252° West 396 456 40,000  Level Albuquerque Center
03:55PM 35.3089 -107.8775 253° West 395 455 40,000  Level Albuquerque Center
03:56PM 35.2758 -108.0006 252° West 396 456 40,000  Level Albuquerque Center
03:57PM 35.2375 -108.1453 252° West 398 458 40,000  Level Albuquerque Center
03:58PM 35.2047 -108.2711 252° West 403 464 40,000  Level Albuquerque Center
03:59PM 35.1719 -108.3956 252° West 402 463 40,000  Level Albuquerque Center
04:00PM 35.1331 -108.5394 252° West 399 459 40,000  Level Albuquerque Center
04:01PM 35.0997 -108.6656 252° West 404 465 40,000  Level Albuquerque Center
04:02PM 35.0608 -108.8103 252° West 403 464 40,000  Level Albuquerque Center
04:03PM 35.0283 -108.9319 252° West 397 457 40,000  Level Albuquerque Center
04:04PM 34.9947 -109.0558 252° West 398 458 40,000  Level Albuquerque Center
04:05PM 34.9536 -109.1956 250° West 393 452 40,000  Level Albuquerque Center
04:06PM 34.9100 -109.3131 246° West 396 456 40,000 -180 Level Albuquerque Center
04:07PM 34.8603 -109.4525 247° West 399 459 39,700 -1,260 Descending Albuquerque Center
04:08PM 34.8169 -109.5644 245° Southwest 390 449 37,500 -1,860 Descending Albuquerque Center
04:09PM 34.7661 -109.6972 245° Southwest 387 445 36,000 -780 Descending Albuquerque Center
04:10PM 34.7236 -109.8153 246° West 394 453 36,000  Level Albuquerque Center
04:11PM 34.6797 -109.9331 246° West 398 458 36,000  Level Albuquerque Center
04:12PM 34.6286 -110.0706 246° West 400 460 36,000  Level Albuquerque Center
04:13PM 34.5881 -110.1942 248° West 408 470 36,000 -1,080 Level Albuquerque Center
04:14PM 34.5331 -110.3244 243° Southwest 392 451 33,800 -1,980 Descending Albuquerque Center
04:15PM 34.4967 -110.4286 247° West 394 453 32,000 -1,920 Descending Albuquerque Center
04:16PM 34.4525 -110.5503 246° West 398 458 29,900 -2,280 Descending Albuquerque Center
04:17PM 34.3983 -110.6928 245° Southwest 391 450 27,300 -2,280 Descending Albuquerque Center
04:18PM 34.3486 -110.8031 241° Southwest 380 437 25,300 -1,980 Descending Albuquerque Center
04:19PM 34.2786 -110.8919 226° Southwest 365 420 23,300 -1,920 Descending Albuquerque Center
04:20PM 34.2131 -110.9786 228° Southwest 354 407 21,400 -1,860 Descending Albuquerque Center
04:21PM 34.1478 -111.0622 227° Southwest 347 399 19,500 -1,920 Descending Albuquerque Center
04:22PM 34.0850 -111.1425 227° Southwest 335 386 17,500 -1,860 Descending Albuquerque Center
04:23PM 34.0247 -111.2225 228° Southwest 325 374 15,800 -1,740 Descending Albuquerque Center
04:24PM 33.9617 -111.3014 226° Southwest 325 374 14,000 -1,740 Descending Albuquerque Center
04:25PM 33.8897 -111.3950 227° Southwest 315 362 12,300 -1,500 Descending Albuquerque Center
04:26PM 33.8264 -111.4525 217° Southwest 287 330 11,000 -1,020 Descending Albuquerque Center
04:27PM 33.7636 -111.5072 216° Southwest 278 320 10,300 -900 Descending Albuquerque Center
04:28PM 33.7036 -111.5581 215° Southwest 264 304 9,200 -840 Descending Albuquerque Center
04:29PM 33.6436 -111.6100 216° Southwest 263 303 8,600 -900 Descending Albuquerque Center
04:31PM 33.5867 -111.6575 215° Southwest 252 290 7,400 -1,200 Descending Albuquerque Center
04:32PM 33.5306 -111.7042 215° Southwest 245 282 6,200 -1,140 Descending Albuquerque Center
04:33PM 33.4944 -111.7686 236° Southwest 238 274 5,100 -1,020 Descending Albuquerque Center
04:34PM 33.4658 -111.8361 243° Southwest 229 264 4,200 -720 Descending Albuquerque Center
04:35PM 33.4439 -111.8997 248° West 159 183 3,700 -1,080 Descending Albuquerque Center
04:36PM 33.4406 -111.9469 265° West 144 166 2,000 -1,260 Descending Albuquerque Center
04:37PM 33.4397 -111.9967 269° West 141 162 1,100 -900 Descending Albuquerque Center
04:39PM 33.4343 -112.0116 270° West  Level Estimated